Terminal Aerodrome Forecast
Issued by NWS

Home | Current Version | Previous Version | Graphics & Text | Print | Product List | Glossary On
Versions: 1 2 3 4 5 6 7 8 9 10 11 12
000
FTUS43 KTOP 191100
TAFMHK
TAF
KMHK 191125Z 1912/2012 17002KT P6SM SCT050
      TEMPO 1912/1913 5SM BR
     FM191500 18011KT P6SM SCT060
     FM200100 16005KT P6SM SCT120=

USA.gov is the U.S. government's official web portal to all federal, state and local government web resources and services.